Time;durP1;ratioP1;P1;durP2;ratioP2;P2;SDS_P1;SDS_P2;PMS_P1;PMS_P2;Temp;Humidity;BMP_temperature;BMP_pressure;BME280_temperature;BME280_humidity;BME280_pressure;Samples;Min_cycle;Max_cycle;Signal;HPM_P1;HPM_P2
2023/02/08 00:01:55;;;;;;;;;;;;;;;;;;5074790;28;19913;-53
2023/02/08 00:04:20;;;;;;;;;;;;;;;;;;5074651;28;19917;-52
2023/02/08 00:06:46;;;;;;;;;;;;;;;;;;5074659;28;19997;-54
2023/02/08 00:09:12;;;;;;;;;;;;;;;;;;5074856;28;19913;-54
2023/02/08 00:11:39;;;;;;;;;;;;;;;;;;5056868;28;19919;-52
2023/02/08 00:14:04;;;;;;;;;;;;;;;;;;5074947;28;19962;-55
2023/02/08 00:16:30;;;;;;;;;;;;;;;;;;5074195;28;19961;-53
2023/02/08 00:18:56;;;;;;;;;;;;;;;;;;5071740;28;20032;-52
2023/02/08 00:21:22;;;;;;;;;;;;;;;;;;5055290;28;19979;-51
2023/02/08 00:23:48;;;;;;;;;;;;;;;;;;5063902;28;19955;-55
2023/02/08 00:26:14;;;;;;;;;;;;;;;;;;5074735;28;19948;-51
2023/02/08 00:28:40;;;;;;;;;;;;;;;;;;5074394;28;20394;-51
2023/02/08 00:31:06;;;;;;;;;;;;;;;;;;5074234;28;19912;-55
2023/02/08 00:33:32;;;;;;;;;;;;;;;;;;5074070;28;20024;-52
2023/02/08 00:35:58;;;;;;;;;;;;;;;;;;5073946;28;19956;-52
2023/02/08 00:38:24;;;;;;;;;;;;;;;;;;5074086;28;20396;-51
2023/02/08 00:40:50;;;;;;;;;;;;;;;;;;5074129;28;19912;-52
2023/02/08 00:43:16;;;;;;;;;;;;;;;;;;5074382;28;19912;-51
2023/02/08 00:45:42;;;;;;;;;;;;;;;;;;5073836;28;19936;-53
2023/02/08 00:48:08;;;;;;;;;;;;;;;;;;5074134;28;20031;-53
2023/02/08 00:50:34;;;;;;;;;;;;;;;;;;5074047;28;19912;-52
2023/02/08 00:53:00;;;;;;;;;;;;;;;;;;5073856;28;19913;-54
2023/02/08 00:55:26;;;;;;;;;;;;;;;;;;5073888;28;20326;-55
2023/02/08 00:57:52;;;;;;;;;;;;;;;;;;5074130;28;20399;-52
2023/02/08 01:00:18;;;;;;;;;;;;;;;;;;5073717;28;19970;-52
2023/02/08 01:02:44;;;;;;;;;;;;;;;;;;5073480;28;19924;-53
2023/02/08 01:05:10;;;;;;;;;;;;;;;;;;5073153;28;19912;-56
2023/02/08 01:07:36;;;;;;;;;;;;;;;;;;5073311;28;20019;-55
2023/02/08 01:10:02;;;;;;;;;;;;;;;;;;5073321;28;19917;-55
2023/02/08 01:12:28;;;;;;;;;;;;;;;;;;5073596;28;19920;-55
2023/02/08 01:14:54;;;;;;;;;;;;;;;;;;5073425;28;19965;-54
2023/02/08 01:17:20;;;;;;;;;;;;;;;;;;5073326;28;19967;-53
2023/02/08 01:19:46;;;;;;;;;;;;;;;;;;5073039;28;19970;-54
2023/02/08 01:22:11;;;;;;;;;;;;;;;;;;5073275;28;19956;-51
2023/02/08 01:24:37;;;;;;;;;;;;;;;;;;5073091;28;19960;-51
2023/02/08 01:27:03;;;;;;;;;;;;;;;;;;5073335;28;20352;-51
2023/02/08 01:29:29;;;;;;;;;;;;;;;;;;5073208;28;19959;-51
2023/02/08 01:31:55;;;;;;;;;;;;;;;;;;5055673;28;19913;-55
2023/02/08 01:34:21;;;;;;;;;;;;;;;;;;5072794;28;19947;-52
2023/02/08 01:36:47;;;;;;;;;;;;;;;;;;5072889;28;20363;-54
2023/02/08 01:39:13;;;;;;;;;;;;;;;;;;5073003;28;19916;-53
2023/02/08 01:41:42;;;;;;;;;;;;;;;;;;5073140;28;19961;-51
2023/02/08 01:44:08;;;;;;;;;;;;;;;;;;5072975;28;19909;-53
2023/02/08 01:46:34;;;;;;;;;;;;;;;;;;5072235;28;20434;-55
2023/02/08 01:49:02;;;;;;;;;;;-0.30;90.90;;;;;;5073021;28;19919;-52
2023/02/08 01:51:30;;;;;;;;;;;-0.40;90.30;;;;;;5056559;28;19913;-51
2023/02/08 01:53:56;;;;;;;;;;;-0.30;90.50;;;;;;5072757;28;19965;-51
2023/02/08 01:56:40;;;;;;;;;;;-0.30;90.60;;;;;;5054356;28;19913;-51
2023/02/08 01:59:11;;;;;;;;;;;-0.30;89.30;;;;;;5057630;28;19920;-53
2023/02/08 02:01:37;;;;;;;;;;;;;;;;;;5072727;28;19917;-52
2023/02/08 02:04:03;;;;;;;;;;;;;;;;;;5054681;28;20061;-51
2023/02/08 02:06:29;;;;;;;;;;;;;;;;;;5072359;28;20455;-54
2023/02/08 02:08:54;;;;;;;;;;;;;;;;;;5055879;28;20007;-55
2023/02/08 02:11:20;;;;;;;;;;;-0.30;90.30;;;;;;5072195;28;20027;-54
2023/02/08 02:13:46;;;;;;;;;;;-0.40;89.80;;;;;;5072292;28;20012;-55
2023/02/08 02:16:12;;;;;;;;;;;-0.40;90.10;;;;;;5071851;28;19913;-55
2023/02/08 02:18:37;;;;;;;;;;;-0.40;89.50;;;;;;5071805;28;19920;-54
2023/02/08 02:21:18;;;;;;;;;;;-0.50;90.80;;;;;;5072359;28;19913;-53
2023/02/08 02:23:53;;;;;;;;;;;-0.60;90.10;;;;;;5072185;28;19912;-51
2023/02/08 02:26:30;;;;;;;;;;;-0.60;90.30;;;;;;5071482;28;19962;-54
2023/02/08 02:29:14;;;;;;;;;;;-0.60;90.00;;;;;;5072103;28;19945;-52
2023/02/08 02:31:43;;;;;;;;;;;-0.60;90.10;;;;;;5050997;28;19917;-55
2023/02/08 02:34:08;;;;;;;;;;;-0.60;90.20;;;;;;5052822;28;19920;-53
2023/02/08 02:36:37;;;;;;;;;;;-0.60;90.20;;;;;;5071842;28;19912;-51
2023/02/08 02:39:11;;;;;;;;;;;-0.60;90.10;;;;;;5071603;28;20360;-52
2023/02/08 02:44:27;;;;;;;;;;;-0.70;89.30;;;;;;5072007;28;19919;-51
2023/02/08 02:47:00;;;;;;;;;;;-0.80;91.60;;;;;;5071954;28;19917;-51
2023/02/08 02:49:42;;;;;;;;;;;-0.80;91.20;;;;;;5071801;28;20384;-53
2023/02/08 02:52:10;;;;;;;;;;;-0.80;90.80;;;;;;5072024;28;19950;-53
2023/02/08 02:54:48;;;;;;;;;;;-0.80;91.50;;;;;;5071428;28;19912;-51
2023/02/08 02:57:17;;;;;;;;;;;-0.80;90.70;;;;;;5071800;28;19912;-51
2023/02/08 02:59:45;;;;;;;;;;;-0.80;91.10;;;;;;5071559;28;19916;-52
2023/02/08 03:02:11;;;;;;;;;;;-0.80;91.40;;;;;;5071683;28;19913;-51
2023/02/08 03:04:40;;;;;;;;;;;-0.80;91.80;;;;;;5094633;22;21033;-56
2023/02/08 03:07:06;;;;;;;;;;;;;;;;;;5072834;28;20380;-57
2023/02/08 03:09:32;;;;;;;;;;;;;;;;;;5073049;28;19909;-57
2023/02/08 03:11:58;;;;;;;;;;;;;;;;;;5083434;28;19956;-59
2023/02/08 03:14:24;;;;;;;;;;;;;;;;;;5090895;28;19908;-59
2023/02/08 03:16:50;;;;;;;;;;;;;;;;;;5083729;28;19912;-56
2023/02/08 03:19:15;;;;;;;;;;;;;;;;;;5071816;28;19917;-58
2023/02/08 03:21:41;;;;;;;;;;;;;;;;;;5071817;28;19912;-59
2023/02/08 03:24:07;;;;;;;;;;;;;;;;;;5071755;28;20270;-59
2023/02/08 03:26:33;;;;;;;;;;;;;;;;;;5087805;28;19978;-56
2023/02/08 03:28:59;;;;;;;;;;;;;;;;;;5091853;28;19919;-58
2023/02/08 03:31:25;;;;;;;;;;;;;;;;;;5083899;28;19912;-56
2023/02/08 03:33:51;;;;;;;;;;;;;;;;;;5075782;28;19913;-57
2023/02/08 03:36:17;;;;;;;;;;;;;;;;;;5075479;28;20394;-58
2023/02/08 03:38:43;;;;;;;;;;;;;;;;;;5075571;28;20395;-58
2023/02/08 03:41:09;;;;;;;;;;;;;;;;;;5068419;28;19917;-58
2023/02/08 03:43:35;;;;;;;;;;;;;;;;;;5075773;28;20356;-55
2023/02/08 03:46:01;;;;;;;;;;;;;;;;;;5075298;28;19920;-56
2023/02/08 03:48:26;;;;;;;;;;;;;;;;;;5075396;28;19920;-58
2023/02/08 03:50:52;;;;;;;;;;;;;;;;;;5058293;28;19917;-59
2023/02/08 03:53:18;;;;;;;;;;;;;;;;;;5087118;28;20031;-58
2023/02/08 03:55:44;;;;;;;;;;;;;;;;;;5085146;28;19999;-55
2023/02/08 03:58:10;;;;;;;;;;;;;;;;;;5095443;28;20339;-57
2023/02/08 04:00:36;;;;;;;;;;;;;;;;;;5092685;28;20003;-59
2023/02/08 04:03:02;;;;;;;;;;;;;;;;;;5092027;28;20006;-55
2023/02/08 04:05:28;;;;;;;;;;;;;;;;;;5094572;28;20411;-58
2023/02/08 04:07:54;;;;;;;;;;;;;;;;;;5074830;28;19920;-58
2023/02/08 04:10:20;;;;;;;;;;;;;;;;;;5066127;28;19920;-58
2023/02/08 04:12:46;;;;;;;;;;;;;;;;;;5095086;28;19916;-59
2023/02/08 04:15:11;;;;;;;;;;;;;;;;;;5076280;28;19908;-59
2023/02/08 04:17:37;;;;;;;;;;;;;;;;;;5083663;28;20015;-58
2023/02/08 04:20:03;;;;;;;;;;;;;;;;;;5073882;28;20468;-57
2023/02/08 04:22:29;;;;;;;;;;;;;;;;;;5074534;28;20327;-59
2023/02/08 04:24:55;;;;;;;;;;;;;;;;;;5065656;28;19959;-56
2023/02/08 04:27:21;;;;;;;;;;;;;;;;;;5076098;28;19908;-58
2023/02/08 04:29:47;;;;;;;;;;;;;;;;;;5069819;28;19922;-56
2023/02/08 04:32:13;;;;;;;;;;;;;;;;;;5074612;28;20332;-58
2023/02/08 04:34:39;;;;;;;;;;;;;;;;;;5074424;28;20338;-58
2023/02/08 04:37:05;;;;;;;;;;;;;;;;;;5074469;28;20401;-59
2023/02/08 04:39:31;;;;;;;;;;;;;;;;;;5093035;28;20002;-57
2023/02/08 04:41:57;;;;;;;;;;;;;;;;;;5083687;28;20014;-59
2023/02/08 04:44:22;;;;;;;;;;;;;;;;;;5082004;28;19908;-57
2023/02/08 04:46:48;;;;;;;;;;;;;;;;;;5074331;28;19917;-59
2023/02/08 04:49:14;;;;;;;;;;;;;;;;;;5057182;28;19919;-58
2023/02/08 04:51:40;;;;;;;;;;;;;;;;;;5078620;28;19919;-59
2023/02/08 04:54:06;;;;;;;;;;;;;;;;;;5093844;28;19958;-58
2023/02/08 04:56:32;;;;;;;;;;;;;;;;;;5088543;28;19924;-56
2023/02/08 04:58:58;;;;;;;;;;;;;;;;;;5090843;28;19916;-56
2023/02/08 05:01:24;;;;;;;;;;;;;;;;;;5093934;28;20376;-57
2023/02/08 05:03:50;;;;;;;;;;;;;;;;;;5094048;28;19916;-57
2023/02/08 05:06:16;;;;;;;;;;;;;;;;;;5094110;28;19911;-55
2023/02/08 05:08:42;;;;;;;;;;;;;;;;;;5094138;28;19951;-58
2023/02/08 05:11:07;;;;;;;;;;;;;;;;;;5094017;28;19954;-54
2023/02/08 05:13:33;;;;;;;;;;;;;;;;;;5094022;28;19954;-55
2023/02/08 05:15:59;;;;;;;;;;;;;;;;;;5093770;28;19908;-54
2023/02/08 05:18:25;;;;;;;;;;;;;;;;;;5093612;28;19954;-58
2023/02/08 05:20:51;;;;;;;;;;;;;;;;;;5092744;28;19908;-56
2023/02/08 05:23:17;;;;;;;;;;;;;;;;;;5093805;28;19994;-55
2023/02/08 05:25:43;;;;;;;;;;;;;;;;;;5093874;28;19964;-57
2023/02/08 05:28:09;;;;;;;;;;;;;;;;;;5093989;28;20004;-57
2023/02/08 05:30:35;;;;;;;;;;;;;;;;;;5093705;28;19962;-56
2023/02/08 05:33:01;;;;;;;;;;;;;;;;;;5093528;28;19947;-56
2023/02/08 05:35:27;;;;;;;;;;;;;;;;;;5093962;28;19992;-54
2023/02/08 05:37:52;;;;;;;;;;;;;;;;;;5093556;28;19912;-58
2023/02/08 05:40:18;;;;;;;;;;;;;;;;;;5093339;28;20300;-58
2023/02/08 05:42:46;;;;;;;;;;;;;;;;;;5093624;28;19908;-55
2023/02/08 05:45:12;;;;;;;;;;;;;;;;;;5075201;28;19912;-54
2023/02/08 05:47:38;;;;;;;;;;;;;;;;;;5093394;28;20418;-54
2023/02/08 05:50:04;;;;;;;;;;;;;;;;;;5093914;28;19908;-54
2023/02/08 05:52:30;;;;;;;;;;;;;;;;;;5093192;28;19908;-55
2023/02/08 05:54:56;;;;;;;;;;;;;;;;;;5093022;28;20372;-54
2023/02/08 05:57:22;;;;;;;;;;;;;;;;;;5075022;28;19916;-58
2023/02/08 05:59:48;;;;;;;;;;;;;;;;;;5093071;28;19919;-57
2023/02/08 06:02:13;;;;;;;;;;;;;;;;;;5093058;28;19908;-59
2023/02/08 06:04:39;;;;;;;;;;;;;;;;;;5092535;28;19968;-55
2023/02/08 06:07:05;;;;;;;;;;;;;;;;;;5092780;28;19908;-55
2023/02/08 06:09:31;;;;;;;;;;;;;;;;;;5093136;28;19919;-58
2023/02/08 06:11:57;;;;;;;;;;;;;;;;;;5093113;28;20286;-57
2023/02/08 06:14:23;;;;;;;;;;;;;;;;;;5092566;28;19908;-59
2023/02/08 06:16:49;;;;;;;;;;;;;;;;;;5092884;28;19962;-57
2023/02/08 06:19:15;;;;;;;;;;;;;;;;;;5092760;28;20323;-57
2023/02/08 06:21:41;;;;;;;;;;;;;;;;;;5092809;28;20441;-55
2023/02/08 06:24:08;;;;;;;;;;;;;;;;;;5092535;28;19943;-56
2023/02/08 06:26:34;;;;;;;;;;;;;;;;;;5092541;28;20002;-54
2023/02/08 06:29:00;;;;;;;;;;;;;;;;;;5092673;28;19958;-54
2023/02/08 06:31:26;;;;;;;;;;;;;;;;;;5092627;28;19939;-56
2023/02/08 06:33:52;;;;;;;;;;;;;;;;;;5092514;28;19908;-58
2023/02/08 06:36:18;;;;;;;;;;;;;;;;;;5092493;28;19909;-55
2023/02/08 06:38:44;;;;;;;;;;;;;;;;;;5092467;28;19915;-58
2023/02/08 06:41:10;;;;;;;;;;;;;;;;;;5091885;28;19908;-58
2023/02/08 06:43:36;;;;;;;;;;;;;;;;;;5091550;28;19915;-57
2023/02/08 06:46:03;;;;;;;;;;;;;;;;;;5092201;28;19916;-58
2023/02/08 06:48:29;;;;;;;;;;;;;;;;;;5074419;28;20372;-59
2023/02/08 06:50:55;;;;;;;;;;;;;;;;;;5092312;28;19994;-56
2023/02/08 06:53:21;;;;;;;;;;;;;;;;;;5092290;28;19954;-56
2023/02/08 06:55:47;;;;;;;;;;;;;;;;;;5074074;28;20395;-54
2023/02/08 06:58:13;;;;;;;;;;;;;;;;;;5092357;28;19915;-54
2023/02/08 07:00:39;;;;;;;;;;;;;;;;;;5092109;28;20377;-57
2023/02/08 07:03:05;;;;;;;;;;;;;;;;;;5092019;28;19912;-57
2023/02/08 07:05:31;;;;;;;;;;;;;;;;;;5091313;28;19909;-55
2023/02/08 07:07:56;;;;;;;;;;;;;;;;;;5092109;28;19961;-58
2023/02/08 07:10:22;;;;;;;;;;;;;;;;;;5092220;28;19962;-56
2023/02/08 07:12:48;;;;;;;;;;;;;;;;;;5092008;28;19997;-58
2023/02/08 07:15:14;;;;;;;;;;;;;;;;;;5091912;28;20372;-56
2023/02/08 07:17:40;;;;;;;;;;;;;;;;;;5092213;28;20003;-58
2023/02/08 07:20:06;;;;;;;;;;;;;;;;;;5091824;28;19919;-56
2023/02/08 07:22:32;;;;;;;;;;;;;;;;;;5091892;28;19908;-56
2023/02/08 07:24:58;;;;;;;;;;;;;;;;;;5091921;28;19908;-55
2023/02/08 07:27:24;;;;;;;;;;;;;;;;;;5092031;28;19911;-58
2023/02/08 07:29:50;;;;;;;;;;;;;;;;;;5091999;28;19908;-54
2023/02/08 07:32:16;;;;;;;;;;;;;;;;;;5091988;28;20292;-57
2023/02/08 07:34:42;;;;;;;;;;;;;;;;;;5091592;28;19908;-54
2023/02/08 07:37:08;;;;;;;;;;;;;;;;;;5091953;28;20308;-57
2023/02/08 07:39:34;;;;;;;;;;;;;;;;;;5091851;28;20191;-56
2023/02/08 07:42:00;;;;;;;;;;;;;;;;;;5091925;28;19912;-58
2023/02/08 07:44:26;;;;;;;;;;;;;;;;;;5091700;28;19908;-54
2023/02/08 07:46:52;;;;;;;;;;;;;;;;;;5091848;28;20395;-55
2023/02/08 07:49:18;;;;;;;;;;;;;;;;;;5091665;28;19931;-57
2023/02/08 07:51:44;;;;;;;;;;;;;;;;;;5092041;28;20273;-56
2023/02/08 07:54:10;;;;;;;;;;;;;;;;;;5091661;28;20002;-54
2023/02/08 07:56:36;;;;;;;;;;;;;;;;;;5091562;28;19909;-54
2023/02/08 07:59:01;;;;;;;;;;;;;;;;;;5073470;28;19913;-54
2023/02/08 08:01:27;;;;;;;;;;;;;;;;;;5091673;28;19908;-57
2023/02/08 08:03:53;;;;;;;;;;;;;;;;;;5091285;28;19927;-57
2023/02/08 08:06:19;;;;;;;;;;;;;;;;;;5091426;28;19912;-58
2023/02/08 08:08:46;;;;;;;;;;;;;;;;;;5091582;28;19917;-58
2023/02/08 08:11:12;;;;;;;;;;;;;;;;;;5091802;28;19908;-58
2023/02/08 08:13:38;;;;;;;;;;;;;;;;;;5091503;28;19959;-59
2023/02/08 08:16:04;;;;;;;;;;;;;;;;;;5091406;28;20368;-59
2023/02/08 08:18:30;;;;;;;;;;;;;;;;;;5094348;28;19909;-56
2023/02/08 08:20:56;;;;;;;;;;;;;;;;;;5095125;28;20007;-59
2023/02/08 08:23:22;;;;;;;;;;;;;;;;;;5076869;28;19915;-55
2023/02/08 08:25:49;;;;;;;;;;;;;;;;;;5094874;28;19912;-57
2023/02/08 08:28:14;;;;;;;;;;;;;;;;;;5094895;28;20400;-60
2023/02/08 08:30:40;;;;;;;;;;;;;;;;;;5094893;28;19915;-58
2023/02/08 08:33:06;;;;;;;;;;;;;;;;;;5094651;28;19909;-57
2023/02/08 08:35:32;;;;;;;;;;;;;;;;;;5094901;28;19908;-60
2023/02/08 08:37:58;;;;;;;;;;;;;;;;;;5094749;28;19931;-55
2023/02/08 08:40:24;;;;;;;;;;;;;;;;;;5094647;28;20300;-59
2023/02/08 08:42:50;;;;;;;;;;;;;;;;;;5094532;28;19908;-58
2023/02/08 08:45:16;;;;;;;;;;;;;;;;;;5094562;28;19908;-55
2023/02/08 08:47:42;;;;;;;;;;;;;;;;;;5094331;28;19908;-59
2023/02/08 08:50:08;;;;;;;;;;;;;;;;;;5094436;28;20136;-60
2023/02/08 08:52:34;;;;;;;;;;;;;;;;;;5094444;28;19939;-58
2023/02/08 08:54:59;;;;;;;;;;;;;;;;;;5094366;28;20461;-59
2023/02/08 08:57:25;;;;;;;;;;;;;;;;;;5094419;28;19978;-59
2023/02/08 08:59:51;;;;;;;;;;;;;;;;;;5094272;28;20292;-57
2023/02/08 09:02:17;;;;;;;;;;;;;;;;;;5076117;28;19912;-55
2023/02/08 09:04:43;;;;;;;;;;;;;;;;;;5116367;22;19935;-53
2023/02/08 09:07:09;;;;;;;;;;;;;;;;;;5094178;28;19908;-53
2023/02/08 09:09:35;;;;;;;;;;;;;;;;;;5094210;28;20368;-53
2023/02/08 09:12:01;;;;;;;;;;;;;;;;;;5094171;28;19908;-52
2023/02/08 09:14:27;;;;;;;;;;;;;;;;;;5093892;28;19948;-55
2023/02/08 09:16:53;;;;;;;;;;;;;;;;;;5093872;28;19922;-51
2023/02/08 09:19:19;;;;;;;;;;;;;;;;;;5093912;28;20361;-54
2023/02/08 09:21:45;;;;;;;;;;;;;;;;;;5093939;28;19912;-51
2023/02/08 09:24:11;;;;;;;;;;;;;;;;;;5093887;28;19908;-51
2023/02/08 09:26:37;;;;;;;;;;;;;;;;;;5093734;28;19969;-53
2023/02/08 09:29:02;;;;;;;;;;;;;;;;;;5091961;28;19963;-54
2023/02/08 09:31:28;;;;;;;;;;;;;;;;;;5093756;28;19914;-55
2023/02/08 09:33:54;;;;;;;;;;;;;;;;;;5093539;28;20407;-51
2023/02/08 09:36:20;;;;;;;;;;;;;;;;;;5093476;28;19908;-51
2023/02/08 09:38:46;;;;;;;;;;;;;;;;;;5093596;28;19908;-55
2023/02/08 09:41:12;;;;;;;;;;;;;;;;;;5093643;28;19915;-52
2023/02/08 09:43:42;;;;;;;;;;;;;;;;;;5093456;28;19958;-51
2023/02/08 09:46:08;;;;;;;;;;;;;;;;;;5093365;28;20279;-51
2023/02/08 09:48:34;;;;;;;;;;;;;;;;;;5093419;28;19908;-51
2023/02/08 09:51:00;;;;;;;;;;;;;;;;;;5093472;28;20007;-52
2023/02/08 09:53:26;;;;;;;;;;;;;;;;;;5093341;28;20007;-54
2023/02/08 09:55:52;;;;;;;;;;;;;;;;;;5093345;28;19995;-51
2023/02/08 09:58:18;;;;;;;;;;;;;;;;;;5093172;28;19908;-53
2023/02/08 10:00:43;;;;;;;;;;;;;;;;;;5091880;28;20292;-51
2023/02/08 10:03:10;;;;;;;;;;;;;;;;;;5092944;28;20365;-51
2023/02/08 10:05:36;;;;;;;;;;;;;;;;;;5092958;28;19947;-51
2023/02/08 10:08:01;;;;;;;;;;;;;;;;;;5093091;28;19986;-53
2023/02/08 10:10:27;;;;;;;;;;;;;;;;;;5093077;28;19978;-52
2023/02/08 10:12:53;;;;;;;;;;;;;;;;;;5092961;28;19915;-53
2023/02/08 10:15:19;;;;;;;;;;;;;;;;;;5092882;28;19908;-54
2023/02/08 10:17:45;;;;;;;;;;;;;;;;;;5093069;28;19912;-52
2023/02/08 10:20:11;;;;;;;;;;;;;;;;;;5092866;28;20423;-54
2023/02/08 10:22:37;;;;;;;;;;;;;;;;;;5092853;28;19954;-51
2023/02/08 10:25:03;;;;;;;;;;;;;;;;;;5092693;28;19937;-51
2023/02/08 10:27:29;;;;;;;;;;;;;;;;;;5092766;28;19961;-52
2023/02/08 10:29:55;;;;;;;;;;;;;;;;;;5092775;28;19977;-53
2023/02/08 10:32:20;;;;;;;;;;;;;;;;;;5092725;28;20388;-52
2023/02/08 10:34:47;;;;;;;;;;;;;;;;;;5092502;28;19908;-51
2023/02/08 10:37:13;;;;;;;;;;;;;;;;;;5092701;28;19915;-51
2023/02/08 10:39:39;;;;;;;;;;;;;;;;;;5091768;28;19912;-51
2023/02/08 10:42:04;;;;;;;;;;;;;;;;;;5092462;28;19916;-51
2023/02/08 10:44:30;;;;;;;;;;;;;;;;;;5092419;28;19909;-51
2023/02/08 10:46:56;;;;;;;;;;;;;;;;;;5092428;28;19908;-52
2023/02/08 10:49:22;;;;;;;;;;;;;;;;;;5092470;28;20007;-51
2023/02/08 10:51:48;;;;;;;;;;;;;;;;;;5092447;28;19959;-54
2023/02/08 10:54:14;;;;;;;;;;;;;;;;;;5092356;28;19915;-52
2023/02/08 10:56:40;;;;;;;;;;;;;;;;;;5092188;28;19908;-54
2023/02/08 10:59:06;;;;;;;;;;;;;;;;;;5092407;28;19912;-54
2023/02/08 11:01:32;;;;;;;;;;;;;;;;;;5092523;28;19914;-53
2023/02/08 11:03:58;;;;;;;;;;;;;;;;;;5092177;28;19923;-52
2023/02/08 11:06:24;;;;;;;;;;;;;;;;;;5092132;28;19912;-51
2023/02/08 11:08:50;;;;;;;;;;;;;;;;;;5092287;28;19908;-52
2023/02/08 11:11:16;;;;;;;;;;;;;;;;;;5092732;28;20394;-52
2023/02/08 11:13:42;;;;;;;;;;;;;;;;;;5090919;28;20025;-52
2023/02/08 11:16:07;;;;;;;;;;;;;;;;;;5090606;28;19912;-52
2023/02/08 11:18:33;;;;;;;;;;;;;;;;;;5099941;28;19912;-52
2023/02/08 11:20:59;;;;;;;;;;;;;;;;;;5106817;28;20349;-55
2023/02/08 11:23:25;;;;;;;;;;;;;;;;;;5091892;28;19916;-52
2023/02/08 11:25:51;;;;;;;;;;;;;;;;;;5091825;28;19951;-51
2023/02/08 11:28:17;;;;;;;;;;;;;;;;;;5107966;28;19973;-51
2023/02/08 11:30:43;;;;;;;;;;;;;;;;;;5112285;28;20383;-54
2023/02/08 11:33:09;;;;;;;;;;;;;;;;;;5112260;28;19951;-52
2023/02/08 11:35:36;;;;;;;;;;;;;;;;;;5110877;28;19962;-54
2023/02/08 11:38:02;;;;;;;;;;;;;;;;;;5110614;28;19914;-52
2023/02/08 11:40:28;;;;;;;;;;;;;;;;;;5112028;28;19912;-53
2023/02/08 11:42:54;;;;;;;;;;;;;;;;;;5104451;28;20014;-52
2023/02/08 11:45:20;;;;;;;;;;;;;;;;;;5110186;28;19912;-51
2023/02/08 11:47:46;;;;;;;;;;;;;;;;;;5112097;28;19919;-52
2023/02/08 11:50:12;;;;;;;;;;;;;;;;;;5109748;28;19939;-52
2023/02/08 11:52:38;;;;;;;;;;;;;;;;;;5095160;28;20292;-53
2023/02/08 11:55:04;;;;;;;;;;;;;;;;;;5095372;28;19919;-55
2023/02/08 11:57:31;;;;;;;;;;;;;;;;;;5094168;28;19912;-53
2023/02/08 11:59:57;;;;;;;;;;;;;;;;;;5111099;28;19923;-55
2023/02/08 12:02:23;;;;;;;;;;;;;;;;;;5098547;28;19924;-54
2023/02/08 12:04:49;;;;;;;;;;;;;;;;;;5095037;28;20277;-52
2023/02/08 12:07:15;;;;;;;;;;;;;;;;;;5095188;28;19915;-52
2023/02/08 12:09:41;;;;;;;;;;;;;;;;;;5108033;28;19912;-53
2023/02/08 12:12:07;;;;;;;;;;;;;;;;;;5112315;28;19920;-52
2023/02/08 12:14:33;;;;;;;;;;;;;;;;;;5094685;28;19908;-55
2023/02/08 12:16:59;;;;;;;;;;;;;;;;;;5100854;28;20010;-54
2023/02/08 12:19:25;;;;;;;;;;;;;;;;;;5102539;28;19963;-51
2023/02/08 12:21:50;;;;;;;;;;;;;;;;;;5100123;28;19970;-52
2023/02/08 12:24:16;;;;;;;;;;;;;;;;;;5094855;28;20372;-52
2023/02/08 12:26:42;;;;;;;;;;;;;;;;;;5094907;28;19908;-53
2023/02/08 12:29:09;;;;;;;;;;;;;;;;;;5094853;28;19916;-52
2023/02/08 12:31:35;;;;;;;;;;;;;;;;;;5109229;28;19915;-53
2023/02/08 12:34:01;;;;;;;;;;;;;;;;;;5107517;28;19957;-52
2023/02/08 12:36:27;;;;;;;;;;;;;;;;;;5114454;28;20313;-52
2023/02/08 12:41:37;;;;;;;;;;;;;;;;;;5114891;28;20018;-53
2023/02/08 12:44:03;;;;;;;;;;;;;;;;;;5114940;28;19969;-53
2023/02/08 12:46:29;;;;;;;;;;;;;;;;;;5103472;28;19931;-54
2023/02/08 12:48:55;;;;;;;;;;;;;;;;;;5113689;28;19908;-52
2023/02/08 12:51:24;;;;;;;;;;;10.80;49.00;;;;;;5114878;28;19968;-54
2023/02/08 12:53:51;;;;;;;;;;;;;;;;;;5114726;28;19912;-56
2023/02/08 12:56:17;;;;;;;;;;;;;;;;;;5114118;28;19908;-55
2023/02/08 12:58:45;;;;;;;;;;;;;;;;;;5114075;28;20185;-52
2023/02/08 13:01:10;;;;;;;;;;;;;;;;;;5104996;28;20435;-55
2023/02/08 13:03:36;;;;;;;;;;;;;;;;;;5093302;28;20276;-55
2023/02/08 13:06:02;;;;;;;;;;;;;;;;;;5097324;28;19916;-54
2023/02/08 13:08:28;;;;;;;;;;;;;;;;;;5113897;28;19913;-56
2023/02/08 13:10:56;;;;;;;;;;;;;;;;;;5114485;28;19952;-52
2023/02/08 13:13:22;;;;;;;;;;;;;;;;;;5114850;28;19908;-55
2023/02/08 13:15:49;;;;;;;;;;;;;;;;;;5112663;28;19981;-52
2023/02/08 13:18:15;;;;;;;;;;;;;;;;;;5114114;28;20120;-54
2023/02/08 13:20:41;;;;;;;;;;;;;;;;;;5113041;28;19912;-55
2023/02/08 13:23:07;;;;;;;;;;;;;;;;;;5113850;28;19919;-55
2023/02/08 13:25:33;;;;;;;;;;;;;;;;;;5112170;28;19912;-55
2023/02/08 13:27:59;;;;;;;;;;;;;;;;;;5113879;28;19912;-53
2023/02/08 13:30:24;;;;;;;;;;;;;;;;;;5110983;28;19960;-52
2023/02/08 13:32:50;;;;;;;;;;;;;;;;;;5093613;28;19908;-55
2023/02/08 13:35:16;;;;;;;;;;;;;;;;;;5093523;28;19919;-55
2023/02/08 13:37:42;;;;;;;;;;;;;;;;;;5093530;28;19947;-53
2023/02/08 13:40:08;;;;;;;;;;;;;;;;;;5093565;28;19955;-52
2023/02/08 13:42:34;;;;;;;;;;;;;;;;;;5094620;28;20363;-55
2023/02/08 13:45:00;;;;;;;;;;;;;;;;;;5093336;28;20296;-52
2023/02/08 13:47:26;;;;;;;;;;;;;;;;;;5111883;28;20007;-53
2023/02/08 13:49:52;;;;;;;;;;;;;;;;;;5114015;28;19915;-53
2023/02/08 13:52:18;;;;;;;;;;;;;;;;;;5113342;28;19912;-55
2023/02/08 13:54:44;;;;;;;;;;;;;;;;;;5113426;28;19953;-54
2023/02/08 13:57:10;;;;;;;;;;;;;;;;;;5112347;28;19956;-52
2023/02/08 13:59:36;;;;;;;;;;;;;;;;;;5113486;28;20350;-55
2023/02/08 14:02:02;;;;;;;;;;;;;;;;;;5096743;28;20437;-55
2023/02/08 14:04:28;;;;;;;;;;;;;;;;;;5093709;28;19923;-53
2023/02/08 14:06:54;;;;;;;;;;;;;;;;;;5093074;28;19935;-52
2023/02/08 14:09:20;;;;;;;;;;;;;;;;;;5093010;28;19909;-56
2023/02/08 14:11:47;;;;;;;;;;;;;;;;;;5091681;28;19919;-54
2023/02/08 14:14:13;;;;;;;;;;;;;;;;;;5092736;28;20391;-53
2023/02/08 14:16:40;;;;;;;;;;;11.60;37.40;;;;;;5092904;28;19916;-52
2023/02/08 14:19:06;;;;;;;;;;;;;;;;;;5102107;28;19919;-57
2023/02/08 14:21:31;;;;;;;;;;;;;;;;;;5111278;28;19919;-57
2023/02/08 14:23:57;;;;;;;;;;;;;;;;;;5111191;28;19912;-57
2023/02/08 14:26:23;;;;;;;;;;;;;;;;;;5093292;28;20006;-55
2023/02/08 14:28:49;;;;;;;;;;;;;;;;;;5092661;28;19908;-57
2023/02/08 14:31:15;;;;;;;;;;;;;;;;;;5101565;28;20337;-57
2023/02/08 14:33:41;;;;;;;;;;;;;;;;;;5102705;28;19920;-56
2023/02/08 14:36:07;;;;;;;;;;;;;;;;;;5101852;28;19912;-56
2023/02/08 14:38:35;;;;;;;;;;;;;;;;;;5101912;28;19942;-57
2023/02/08 14:41:01;;;;;;;;;;;;;;;;;;5109069;28;19915;-59
2023/02/08 14:43:27;;;;;;;;;;;;;;;;;;5093020;28;19916;-60
2023/02/08 14:45:53;;;;;;;;;;;;;;;;;;5092251;28;19912;-58
2023/02/08 14:48:22;;;;;;;;;;;16.90;30.10;;;;;;5091219;28;19915;-56
2023/02/08 14:50:48;;;;;;;;;;;;;;;;;;5105474;28;19908;-54
2023/02/08 14:53:14;;;;;;;;;;;;;;;;;;5112652;28;20273;-57
2023/02/08 14:55:40;;;;;;;;;;;;;;;;;;5112463;28;19908;-54
2023/02/08 14:58:07;;;;;;;;;;;;;;;;;;5112583;28;20394;-57
2023/02/08 15:00:33;;;;;;;;;;;;;;;;;;5112501;28;20411;-55
2023/02/08 15:05:25;;;;;;;;;;;;;;;;;;5106681;22;19991;-59
2023/02/08 15:07:51;;;;;;;;;;;;;;;;;;5072979;28;19969;-58
2023/02/08 15:10:16;;;;;;;;;;;;;;;;;;5091811;28;19919;-59
2023/02/08 15:12:42;;;;;;;;;;;;;;;;;;5092099;28;20390;-59
2023/02/08 15:15:08;;;;;;;;;;;;;;;;;;5091831;28;19915;-57
2023/02/08 15:17:34;;;;;;;;;;;;;;;;;;5073948;28;19908;-59
2023/02/08 15:20:01;;;;;;;;;;;;;;;;;;5092010;28;20296;-60
2023/02/08 15:22:28;;;;;;;;;;;;;;;;;;5092262;28;19990;-59
2023/02/08 15:24:53;;;;;;;;;;;;;;;;;;5092030;28;19995;-56
2023/02/08 15:27:19;;;;;;;;;;;;;;;;;;5095124;28;19989;-57
2023/02/08 15:29:45;;;;;;;;;;;;;;;;;;5096032;28;20288;-58
2023/02/08 15:32:11;;;;;;;;;;;;;;;;;;5096005;28;20261;-59
2023/02/08 15:34:37;;;;;;;;;;;;;;;;;;5095882;28;20316;-58
2023/02/08 15:37:03;;;;;;;;;;;;;;;;;;5096004;28;20365;-58
2023/02/08 15:39:29;;;;;;;;;;;;;;;;;;5095907;28;20010;-59
2023/02/08 15:41:55;;;;;;;;;;;;;;;;;;5095996;28;20300;-57
2023/02/08 15:44:21;;;;;;;;;;;;;;;;;;5095613;28;20372;-58
2023/02/08 15:46:47;;;;;;;;;;;;;;;;;;5095787;28;19909;-59
2023/02/08 15:49:13;;;;;;;;;;;;;;;;;;5095805;28;20381;-59
2023/02/08 15:51:39;;;;;;;;;;;;;;;;;;5095719;28;19915;-58
2023/02/08 15:54:05;;;;;;;;;;;;;;;;;;5095626;28;19915;-54
2023/02/08 15:56:31;;;;;;;;;;;;;;;;;;5095570;28;20424;-59
2023/02/08 15:58:56;;;;;;;;;;;;;;;;;;5095233;28;19908;-58
2023/02/08 16:01:23;;;;;;;;;;;;;;;;;;5095434;28;19965;-59
2023/02/08 16:03:49;;;;;;;;;;;;;;;;;;5095250;28;19916;-56
2023/02/08 16:06:15;;;;;;;;;;;;;;;;;;5095293;28;20023;-58
2023/02/08 16:08:42;;;;;;;;;;;;;;;;;;5095253;28;20367;-57
2023/02/08 16:11:08;;;;;;;;;;;;;;;;;;5095334;28;20007;-57
2023/02/08 16:13:34;;;;;;;;;;;;;;;;;;5095205;28;20427;-58
2023/02/08 16:16:02;;;;;;;;;;;;;;;;;;5095040;28;19916;-58
2023/02/08 16:18:27;;;;;;;;;;;;;;;;;;5095104;28;19908;-55
2023/02/08 16:20:53;;;;;;;;;;;;;;;;;;5095127;28;19961;-58
2023/02/08 16:23:19;;;;;;;;;;;;;;;;;;5095070;28;19912;-58
2023/02/08 16:25:48;;;;;;;;;;;;;;;;;;5094906;28;20429;-56
2023/02/08 16:28:14;;;;;;;;;;;;;;;;;;5077036;28;19912;-57
2023/02/08 16:30:40;;;;;;;;;;;;;;;;;;5094893;28;20299;-57
2023/02/08 16:33:06;;;;;;;;;;;;;;;;;;5094917;28;20631;-56
2023/02/08 16:35:32;;;;;;;;;;;;;;;;;;5094794;28;19908;-59